sensor_id;sensor_type;location;lat;lon;timestamp;temperature;humidity
28863;DHT22;15994;51.796;13.006;2022-08-21T00:01:24;19.10;99.90
28863;DHT22;15994;51.796;13.006;2022-08-21T00:03:51;19.10;99.90
28863;DHT22;15994;51.796;13.006;2022-08-21T00:06:18;19.00;99.90
28863;DHT22;15994;51.796;13.006;2022-08-21T00:08:45;19.00;99.90
28863;DHT22;15994;51.796;13.006;2022-08-21T00:11:12;19.00;99.90
28863;DHT22;15994;51.796;13.006;2022-08-21T00:13:39;19.00;99.90
28863;DHT22;15994;51.796;13.006;2022-08-21T00:16:05;19.00;99.90
28863;DHT22;15994;51.796;13.006;2022-08-21T00:18:32;19.00;99.90
28863;DHT22;15994;51.796;13.006;2022-08-21T00:20:58;18.90;99.90
28863;DHT22;15994;51.796;13.006;2022-08-21T00:23:25;18.90;99.90
28863;DHT22;15994;51.796;13.006;2022-08-21T00:25:52;18.90;99.90
28863;DHT22;15994;51.796;13.006;2022-08-21T00:28:18;18.90;99.90
28863;DHT22;15994;51.796;13.006;2022-08-21T00:30:45;18.90;99.90
28863;DHT22;15994;51.796;13.006;2022-08-21T00:33:12;18.90;99.90
28863;DHT22;15994;51.796;13.006;2022-08-21T00:35:41;18.90;99.90
28863;DHT22;15994;51.796;13.006;2022-08-21T00:38:08;18.90;99.90
28863;DHT22;15994;51.796;13.006;2022-08-21T00:40:40;18.80;99.90
28863;DHT22;15994;51.796;13.006;2022-08-21T00:43:09;18.80;99.90
28863;DHT22;15994;51.796;13.006;2022-08-21T00:45:37;18.80;99.90
28863;DHT22;15994;51.796;13.006;2022-08-21T00:48:04;18.80;99.90
28863;DHT22;15994;51.796;13.006;2022-08-21T00:50:35;18.70;99.90
28863;DHT22;15994;51.796;13.006;2022-08-21T00:53:03;18.80;99.90
28863;DHT22;15994;51.796;13.006;2022-08-21T00:55:33;18.70;99.90
28863;DHT22;15994;51.796;13.006;2022-08-21T00:58:01;18.70;99.90
28863;DHT22;15994;51.796;13.006;2022-08-21T01:00:34;18.70;99.90
28863;DHT22;15994;51.796;13.006;2022-08-21T01:03:04;18.70;99.90
28863;DHT22;15994;51.796;13.006;2022-08-21T01:05:32;18.70;99.90
28863;DHT22;15994;51.796;13.006;2022-08-21T01:07:59;18.60;99.90
28863;DHT22;15994;51.796;13.006;2022-08-21T01:10:25;18.60;99.90
28863;DHT22;15994;51.796;13.006;2022-08-21T01:12:53;18.60;99.90
28863;DHT22;15994;51.796;13.006;2022-08-21T01:15:22;18.60;99.90
28863;DHT22;15994;51.796;13.006;2022-08-21T01:17:49;18.50;99.90
28863;DHT22;15994;51.796;13.006;2022-08-21T01:20:16;18.50;99.90
28863;DHT22;15994;51.796;13.006;2022-08-21T01:22:43;18.50;99.90
28863;DHT22;15994;51.796;13.006;2022-08-21T01:25:12;18.50;99.90
28863;DHT22;15994;51.796;13.006;2022-08-21T01:27:40;18.40;99.90
28863;DHT22;15994;51.796;13.006;2022-08-21T01:30:21;18.40;99.90
28863;DHT22;15994;51.796;13.006;2022-08-21T01:32:48;18.50;99.90
28863;DHT22;15994;51.796;13.006;2022-08-21T01:35:17;18.40;99.90
28863;DHT22;15994;51.796;13.006;2022-08-21T01:37:45;18.40;99.90
28863;DHT22;15994;51.796;13.006;2022-08-21T01:40:14;18.40;99.90
28863;DHT22;15994;51.796;13.006;2022-08-21T01:42:42;18.40;99.90
28863;DHT22;15994;51.796;13.006;2022-08-21T01:45:09;18.50;99.90
28863;DHT22;15994;51.796;13.006;2022-08-21T01:47:36;18.40;99.90
28863;DHT22;15994;51.796;13.006;2022-08-21T01:50:04;18.40;99.90
28863;DHT22;15994;51.796;13.006;2022-08-21T01:52:32;18.30;99.90
28863;DHT22;15994;51.796;13.006;2022-08-21T01:54:58;18.30;99.90
28863;DHT22;15994;51.796;13.006;2022-08-21T01:57:25;18.20;99.90
28863;DHT22;15994;51.796;13.006;2022-08-21T01:59:52;18.20;99.90
28863;DHT22;15994;51.796;13.006;2022-08-21T02:02:19;18.20;99.90
28863;DHT22;15994;51.796;13.006;2022-08-21T02:04:46;18.20;99.90
28863;DHT22;15994;51.796;13.006;2022-08-21T02:07:12;18.10;99.90
28863;DHT22;15994;51.796;13.006;2022-08-21T02:09:40;18.10;99.90
28863;DHT22;15994;51.796;13.006;2022-08-21T02:12:08;18.10;99.90
28863;DHT22;15994;51.796;13.006;2022-08-21T02:14:34;18.10;99.90
28863;DHT22;15994;51.796;13.006;2022-08-21T02:17:01;18.00;99.90
28863;DHT22;15994;51.796;13.006;2022-08-21T02:19:27;18.00;99.90
28863;DHT22;15994;51.796;13.006;2022-08-21T02:21:54;18.10;99.90
28863;DHT22;15994;51.796;13.006;2022-08-21T02:24:20;18.10;99.90
28863;DHT22;15994;51.796;13.006;2022-08-21T02:26:47;18.10;99.90
28863;DHT22;15994;51.796;13.006;2022-08-21T02:29:13;18.00;99.90
28863;DHT22;15994;51.796;13.006;2022-08-21T02:31:40;18.00;99.90
28863;DHT22;15994;51.796;13.006;2022-08-21T02:34:07;18.00;99.90
28863;DHT22;15994;51.796;13.006;2022-08-21T02:36:34;18.00;99.90
28863;DHT22;15994;51.796;13.006;2022-08-21T02:39:00;17.90;99.90
28863;DHT22;15994;51.796;13.006;2022-08-21T02:41:27;18.00;99.90
28863;DHT22;15994;51.796;13.006;2022-08-21T02:43:53;17.90;99.90
28863;DHT22;15994;51.796;13.006;2022-08-21T02:46:20;17.90;99.90
28863;DHT22;15994;51.796;13.006;2022-08-21T02:48:47;17.80;99.90
28863;DHT22;15994;51.796;13.006;2022-08-21T02:51:17;17.80;99.90
28863;DHT22;15994;51.796;13.006;2022-08-21T02:53:46;17.90;99.90
28863;DHT22;15994;51.796;13.006;2022-08-21T02:56:16;17.90;99.90
28863;DHT22;15994;51.796;13.006;2022-08-21T02:58:46;17.80;99.90
28863;DHT22;15994;51.796;13.006;2022-08-21T03:01:14;17.70;99.90
28863;DHT22;15994;51.796;13.006;2022-08-21T03:03:43;17.70;99.90
28863;DHT22;15994;51.796;13.006;2022-08-21T03:06:12;17.60;99.90
28863;DHT22;15994;51.796;13.006;2022-08-21T03:08:39;17.60;99.90
28863;DHT22;15994;51.796;13.006;2022-08-21T03:11:07;17.50;99.90
28863;DHT22;15994;51.796;13.006;2022-08-21T03:13:34;17.60;99.90
28863;DHT22;15994;51.796;13.006;2022-08-21T03:16:00;17.50;99.90
28863;DHT22;15994;51.796;13.006;2022-08-21T03:18:27;17.50;99.90
28863;DHT22;15994;51.796;13.006;2022-08-21T03:20:53;17.50;99.90
28863;DHT22;15994;51.796;13.006;2022-08-21T03:23:21;17.60;99.90
28863;DHT22;15994;51.796;13.006;2022-08-21T03:25:48;17.50;99.90
28863;DHT22;15994;51.796;13.006;2022-08-21T03:28:19;17.40;99.90
28863;DHT22;15994;51.796;13.006;2022-08-21T03:30:48;17.40;99.90
28863;DHT22;15994;51.796;13.006;2022-08-21T03:33:15;17.30;99.90
28863;DHT22;15994;51.796;13.006;2022-08-21T03:35:43;17.40;99.90
28863;DHT22;15994;51.796;13.006;2022-08-21T03:38:11;17.40;99.90
28863;DHT22;15994;51.796;13.006;2022-08-21T03:40:38;17.30;99.90
28863;DHT22;15994;51.796;13.006;2022-08-21T03:43:05;17.30;99.90
28863;DHT22;15994;51.796;13.006;2022-08-21T03:45:34;17.20;99.90
28863;DHT22;15994;51.796;13.006;2022-08-21T03:48:03;17.20;99.90
28863;DHT22;15994;51.796;13.006;2022-08-21T03:50:32;17.20;99.90
28863;DHT22;15994;51.796;13.006;2022-08-21T03:52:59;17.20;99.90
28863;DHT22;15994;51.796;13.006;2022-08-21T03:55:26;17.20;99.90
28863;DHT22;15994;51.796;13.006;2022-08-21T03:57:53;17.20;99.90
28863;DHT22;15994;51.796;13.006;2022-08-21T04:00:21;17.10;99.90
28863;DHT22;15994;51.796;13.006;2022-08-21T04:02:48;17.10;99.90
28863;DHT22;15994;51.796;13.006;2022-08-21T04:05:16;17.10;99.90
28863;DHT22;15994;51.796;13.006;2022-08-21T04:07:56;17.20;99.90
28863;DHT22;15994;51.796;13.006;2022-08-21T04:10:24;17.20;99.90
28863;DHT22;15994;51.796;13.006;2022-08-21T04:12:52;17.10;99.90
28863;DHT22;15994;51.796;13.006;2022-08-21T04:15:20;17.10;99.90
28863;DHT22;15994;51.796;13.006;2022-08-21T04:17:46;17.10;99.90
28863;DHT22;15994;51.796;13.006;2022-08-21T04:20:14;17.00;99.90
28863;DHT22;15994;51.796;13.006;2022-08-21T04:22:40;17.00;99.90
28863;DHT22;15994;51.796;13.006;2022-08-21T04:25:08;17.10;99.90
28863;DHT22;15994;51.796;13.006;2022-08-21T04:27:34;17.10;99.90
28863;DHT22;15994;51.796;13.006;2022-08-21T04:30:01;17.20;99.90
28863;DHT22;15994;51.796;13.006;2022-08-21T04:32:28;17.30;99.90
28863;DHT22;15994;51.796;13.006;2022-08-21T04:35:06;17.20;99.90
28863;DHT22;15994;51.796;13.006;2022-08-21T04:37:34;17.10;99.90
28863;DHT22;15994;51.796;13.006;2022-08-21T04:40:00;17.20;99.90
28863;DHT22;15994;51.796;13.006;2022-08-21T04:42:28;17.30;99.90
28863;DHT22;15994;51.796;13.006;2022-08-21T04:44:55;17.30;99.90
28863;DHT22;15994;51.796;13.006;2022-08-21T04:47:22;17.30;99.90
28863;DHT22;15994;51.796;13.006;2022-08-21T04:49:50;17.30;99.90
28863;DHT22;15994;51.796;13.006;2022-08-21T04:52:20;17.20;99.90
28863;DHT22;15994;51.796;13.006;2022-08-21T04:54:48;17.20;99.90
28863;DHT22;15994;51.796;13.006;2022-08-21T04:57:17;17.30;99.90
28863;DHT22;15994;51.796;13.006;2022-08-21T04:59:48;17.30;99.90
28863;DHT22;15994;51.796;13.006;2022-08-21T05:02:15;17.40;99.90
28863;DHT22;15994;51.796;13.006;2022-08-21T05:04:47;17.40;99.90
28863;DHT22;15994;51.796;13.006;2022-08-21T05:07:23;17.40;99.90
28863;DHT22;15994;51.796;13.006;2022-08-21T05:09:51;17.40;99.90
28863;DHT22;15994;51.796;13.006;2022-08-21T05:12:18;17.60;99.90
28863;DHT22;15994;51.796;13.006;2022-08-21T05:14:44;17.70;99.90
28863;DHT22;15994;51.796;13.006;2022-08-21T05:17:12;17.60;99.90
28863;DHT22;15994;51.796;13.006;2022-08-21T05:19:39;17.60;99.90
28863;DHT22;15994;51.796;13.006;2022-08-21T05:22:06;17.60;99.90
28863;DHT22;15994;51.796;13.006;2022-08-21T05:24:32;17.60;99.90
28863;DHT22;15994;51.796;13.006;2022-08-21T05:26:59;17.50;99.90
28863;DHT22;15994;51.796;13.006;2022-08-21T05:29:26;17.60;99.90
28863;DHT22;15994;51.796;13.006;2022-08-21T05:31:52;17.60;99.90
28863;DHT22;15994;51.796;13.006;2022-08-21T05:34:21;17.70;99.90
28863;DHT22;15994;51.796;13.006;2022-08-21T05:36:48;17.70;99.90
28863;DHT22;15994;51.796;13.006;2022-08-21T05:39:15;17.80;99.90
28863;DHT22;15994;51.796;13.006;2022-08-21T05:41:41;17.80;99.90
28863;DHT22;15994;51.796;13.006;2022-08-21T05:44:08;17.70;99.90
28863;DHT22;15994;51.796;13.006;2022-08-21T05:46:34;17.70;99.90
28863;DHT22;15994;51.796;13.006;2022-08-21T05:49:01;17.80;99.90
28863;DHT22;15994;51.796;13.006;2022-08-21T05:51:28;17.80;99.90
28863;DHT22;15994;51.796;13.006;2022-08-21T05:53:55;17.80;99.90
28863;DHT22;15994;51.796;13.006;2022-08-21T05:56:21;17.90;99.90
28863;DHT22;15994;51.796;13.006;2022-08-21T05:58:48;17.80;99.90
28863;DHT22;15994;51.796;13.006;2022-08-21T06:01:14;18.00;99.90
28863;DHT22;15994;51.796;13.006;2022-08-21T06:03:41;17.90;99.90
28863;DHT22;15994;51.796;13.006;2022-08-21T06:06:08;18.00;99.90
28863;DHT22;15994;51.796;13.006;2022-08-21T06:08:35;18.10;99.90
28863;DHT22;15994;51.796;13.006;2022-08-21T06:11:03;18.20;99.90
28863;DHT22;15994;51.796;13.006;2022-08-21T06:13:31;18.20;99.90
28863;DHT22;15994;51.796;13.006;2022-08-21T06:16:14;18.20;99.90
28863;DHT22;15994;51.796;13.006;2022-08-21T06:18:42;18.20;99.90
28863;DHT22;15994;51.796;13.006;2022-08-21T06:21:09;18.30;99.90
28863;DHT22;15994;51.796;13.006;2022-08-21T06:23:37;18.20;99.90
28863;DHT22;15994;51.796;13.006;2022-08-21T06:26:05;18.20;99.90
28863;DHT22;15994;51.796;13.006;2022-08-21T06:28:32;18.20;99.90
28863;DHT22;15994;51.796;13.006;2022-08-21T06:30:59;18.20;99.90
28863;DHT22;15994;51.796;13.006;2022-08-21T06:33:26;18.30;99.90
28863;DHT22;15994;51.796;13.006;2022-08-21T06:35:52;18.40;99.90
28863;DHT22;15994;51.796;13.006;2022-08-21T06:38:19;18.40;99.90
28863;DHT22;15994;51.796;13.006;2022-08-21T06:40:45;18.50;99.90
28863;DHT22;15994;51.796;13.006;2022-08-21T06:43:15;18.60;99.90
28863;DHT22;15994;51.796;13.006;2022-08-21T06:45:43;18.70;99.90
28863;DHT22;15994;51.796;13.006;2022-08-21T06:48:09;18.90;99.90
28863;DHT22;15994;51.796;13.006;2022-08-21T06:50:36;18.90;99.90
28863;DHT22;15994;51.796;13.006;2022-08-21T06:53:09;18.90;99.90
28863;DHT22;15994;51.796;13.006;2022-08-21T06:55:37;19.20;99.90
28863;DHT22;15994;51.796;13.006;2022-08-21T06:58:04;19.20;99.90
28863;DHT22;15994;51.796;13.006;2022-08-21T07:00:32;19.20;99.90
28863;DHT22;15994;51.796;13.006;2022-08-21T07:02:59;19.10;99.90
28863;DHT22;15994;51.796;13.006;2022-08-21T07:05:27;19.10;99.90
28863;DHT22;15994;51.796;13.006;2022-08-21T07:07:54;19.20;99.90
28863;DHT22;15994;51.796;13.006;2022-08-21T07:10:20;19.20;99.90
28863;DHT22;15994;51.796;13.006;2022-08-21T07:12:47;19.40;99.90
28863;DHT22;15994;51.796;13.006;2022-08-21T07:15:13;19.50;99.90
28863;DHT22;15994;51.796;13.006;2022-08-21T07:17:40;19.50;99.90
28863;DHT22;15994;51.796;13.006;2022-08-21T07:20:07;19.60;99.90
28863;DHT22;15994;51.796;13.006;2022-08-21T07:22:35;19.70;99.90
28863;DHT22;15994;51.796;13.006;2022-08-21T07:25:02;19.70;99.90
28863;DHT22;15994;51.796;13.006;2022-08-21T07:27:29;19.80;99.90
28863;DHT22;15994;51.796;13.006;2022-08-21T07:29:56;19.90;99.90
28863;DHT22;15994;51.796;13.006;2022-08-21T07:32:23;19.90;99.90
28863;DHT22;15994;51.796;13.006;2022-08-21T07:34:50;19.80;99.90
28863;DHT22;15994;51.796;13.006;2022-08-21T07:37:16;19.90;99.90
28863;DHT22;15994;51.796;13.006;2022-08-21T07:39:43;19.80;99.90
28863;DHT22;15994;51.796;13.006;2022-08-21T07:42:09;19.80;99.90
28863;DHT22;15994;51.796;13.006;2022-08-21T07:44:36;19.70;99.90
28863;DHT22;15994;51.796;13.006;2022-08-21T07:47:02;19.90;99.90
28863;DHT22;15994;51.796;13.006;2022-08-21T07:49:29;20.00;99.90
28863;DHT22;15994;51.796;13.006;2022-08-21T07:51:56;20.00;99.90
28863;DHT22;15994;51.796;13.006;2022-08-21T07:54:23;20.20;99.90
28863;DHT22;15994;51.796;13.006;2022-08-21T07:56:49;20.20;99.90
28863;DHT22;15994;51.796;13.006;2022-08-21T07:59:16;20.30;99.90
28863;DHT22;15994;51.796;13.006;2022-08-21T08:01:42;20.30;99.90
28863;DHT22;15994;51.796;13.006;2022-08-21T08:04:09;20.50;99.90
28863;DHT22;15994;51.796;13.006;2022-08-21T08:06:35;20.50;99.90
28863;DHT22;15994;51.796;13.006;2022-08-21T08:09:02;20.50;99.90
28863;DHT22;15994;51.796;13.006;2022-08-21T08:11:30;20.50;99.90
28863;DHT22;15994;51.796;13.006;2022-08-21T08:13:56;20.60;99.90
28863;DHT22;15994;51.796;13.006;2022-08-21T08:16:25;20.70;99.90
28863;DHT22;15994;51.796;13.006;2022-08-21T08:18:52;21.00;99.90
28863;DHT22;15994;51.796;13.006;2022-08-21T08:21:20;21.10;99.90
28863;DHT22;15994;51.796;13.006;2022-08-21T08:23:47;21.00;99.90
28863;DHT22;15994;51.796;13.006;2022-08-21T08:26:14;21.00;99.90
28863;DHT22;15994;51.796;13.006;2022-08-21T08:28:42;21.20;99.90
28863;DHT22;15994;51.796;13.006;2022-08-21T08:31:09;21.30;99.90
28863;DHT22;15994;51.796;13.006;2022-08-21T08:33:35;21.50;99.90
28863;DHT22;15994;51.796;13.006;2022-08-21T08:36:02;21.60;99.90
28863;DHT22;15994;51.796;13.006;2022-08-21T08:38:29;21.70;99.90
28863;DHT22;15994;51.796;13.006;2022-08-21T08:41:04;21.70;99.90
28863;DHT22;15994;51.796;13.006;2022-08-21T08:43:33;21.60;99.90
28863;DHT22;15994;51.796;13.006;2022-08-21T08:46:09;21.70;99.90
28863;DHT22;15994;51.796;13.006;2022-08-21T08:48:53;21.60;99.90
28863;DHT22;15994;51.796;13.006;2022-08-21T08:51:27;21.70;99.90
28863;DHT22;15994;51.796;13.006;2022-08-21T08:53:59;21.80;99.90
28863;DHT22;15994;51.796;13.006;2022-08-21T08:56:30;21.90;99.90
28863;DHT22;15994;51.796;13.006;2022-08-21T08:59:02;22.00;99.90
28863;DHT22;15994;51.796;13.006;2022-08-21T09:01:32;22.10;99.90
28863;DHT22;15994;51.796;13.006;2022-08-21T09:03:59;21.90;99.90
28863;DHT22;15994;51.796;13.006;2022-08-21T09:06:57;21.90;99.90
28863;DHT22;15994;51.796;13.006;2022-08-21T09:09:38;22.00;99.90
28863;DHT22;15994;51.796;13.006;2022-08-21T09:12:23;22.10;99.90
28863;DHT22;15994;51.796;13.006;2022-08-21T09:15:20;22.10;99.90
28863;DHT22;15994;51.796;13.006;2022-08-21T09:20:52;21.90;99.90
28863;DHT22;15994;51.796;13.006;2022-08-21T09:23:40;22.00;99.90
28863;DHT22;15994;51.796;13.006;2022-08-21T09:26:23;22.10;99.90
28863;DHT22;15994;51.796;13.006;2022-08-21T09:28:53;21.90;99.90
28863;DHT22;15994;51.796;13.006;2022-08-21T09:31:33;21.90;99.90
28863;DHT22;15994;51.796;13.006;2022-08-21T09:34:03;22.00;99.90
28863;DHT22;15994;51.796;13.006;2022-08-21T09:36:48;22.10;99.90
28863;DHT22;15994;51.796;13.006;2022-08-21T09:39:31;21.90;99.90
28863;DHT22;15994;51.796;13.006;2022-08-21T09:42:01;21.80;99.90
28863;DHT22;15994;51.796;13.006;2022-08-21T09:44:34;22.00;99.90
28863;DHT22;15994;51.796;13.006;2022-08-21T09:47:04;22.00;99.90
28863;DHT22;15994;51.796;13.006;2022-08-21T09:49:37;22.10;99.90
28863;DHT22;15994;51.796;13.006;2022-08-21T09:52:19;22.20;99.90
28863;DHT22;15994;51.796;13.006;2022-08-21T09:54:50;22.30;99.90
28863;DHT22;15994;51.796;13.006;2022-08-21T09:57:24;22.50;99.90
28863;DHT22;15994;51.796;13.006;2022-08-21T10:00:31;22.60;99.90
28863;DHT22;15994;51.796;13.006;2022-08-21T10:03:28;22.40;99.90
28863;DHT22;15994;51.796;13.006;2022-08-21T10:06:04;22.40;99.90
28863;DHT22;15994;51.796;13.006;2022-08-21T10:08:35;22.50;99.90
28863;DHT22;15994;51.796;13.006;2022-08-21T10:11:12;22.50;99.90
28863;DHT22;15994;51.796;13.006;2022-08-21T10:13:47;22.60;99.90
28863;DHT22;15994;51.796;13.006;2022-08-21T10:20:09;22.50;99.90
28863;DHT22;15994;51.796;13.006;2022-08-21T10:22:52;22.50;99.90
28863;DHT22;15994;51.796;13.006;2022-08-21T10:25:27;22.70;99.90
28863;DHT22;15994;51.796;13.006;2022-08-21T10:28:03;22.80;99.90
28863;DHT22;15994;51.796;13.006;2022-08-21T10:30:49;22.90;99.90
28863;DHT22;15994;51.796;13.006;2022-08-21T10:36:09;22.90;99.90
28863;DHT22;15994;51.796;13.006;2022-08-21T10:41:36;22.90;99.90
28863;DHT22;15994;51.796;13.006;2022-08-21T10:44:25;23.00;99.90
28863;DHT22;15994;51.796;13.006;2022-08-21T10:47:05;23.10;99.90
28863;DHT22;15994;51.796;13.006;2022-08-21T10:49:40;23.00;99.90
28863;DHT22;15994;51.796;13.006;2022-08-21T10:52:36;23.10;99.90
28863;DHT22;15994;51.796;13.006;2022-08-21T10:55:19;23.00;99.90
28863;DHT22;15994;51.796;13.006;2022-08-21T10:57:51;23.00;99.90
28863;DHT22;15994;51.796;13.006;2022-08-21T11:00:22;23.20;99.90
28863;DHT22;15994;51.796;13.006;2022-08-21T11:02:55;23.20;99.90
28863;DHT22;15994;51.796;13.006;2022-08-21T11:05:33;23.20;99.90
28863;DHT22;15994;51.796;13.006;2022-08-21T11:08:06;23.00;99.90
28863;DHT22;15994;51.796;13.006;2022-08-21T11:10:46;23.00;99.90
28863;DHT22;15994;51.796;13.006;2022-08-21T11:13:26;23.00;99.90
28863;DHT22;15994;51.796;13.006;2022-08-21T11:16:06;23.10;99.90
28863;DHT22;15994;51.796;13.006;2022-08-21T11:21:56;22.80;99.90
28863;DHT22;15994;51.796;13.006;2022-08-21T11:24:33;23.00;99.90
28863;DHT22;15994;51.796;13.006;2022-08-21T11:29:54;23.10;99.90
28863;DHT22;15994;51.796;13.006;2022-08-21T11:32:54;23.10;99.90
28863;DHT22;15994;51.796;13.006;2022-08-21T11:35:39;23.40;99.90
28863;DHT22;15994;51.796;13.006;2022-08-21T11:38:33;23.40;99.90
28863;DHT22;15994;51.796;13.006;2022-08-21T11:41:29;23.20;99.90
28863;DHT22;15994;51.796;13.006;2022-08-21T11:46:31;23.20;99.50
28863;DHT22;15994;51.796;13.006;2022-08-21T11:49:19;23.20;99.90
28863;DHT22;15994;51.796;13.006;2022-08-21T11:54:44;23.40;99.90
28863;DHT22;15994;51.796;13.006;2022-08-21T12:00:06;23.40;99.90
28863;DHT22;15994;51.796;13.006;2022-08-21T12:02:46;23.60;99.90
28863;DHT22;15994;51.796;13.006;2022-08-21T12:05:52;23.70;99.20
28863;DHT22;15994;51.796;13.006;2022-08-21T12:14:00;23.50;99.00
28863;DHT22;15994;51.796;13.006;2022-08-21T12:16:40;23.70;98.90
28863;DHT22;15994;51.796;13.006;2022-08-21T12:19:33;23.80;97.50
28863;DHT22;15994;51.796;13.006;2022-08-21T12:22:10;23.80;98.50
28863;DHT22;15994;51.796;13.006;2022-08-21T12:24:47;23.80;98.80
28863;DHT22;15994;51.796;13.006;2022-08-21T12:29:52;23.50;98.70
28863;DHT22;15994;51.796;13.006;2022-08-21T12:32:24;23.60;98.90
28863;DHT22;15994;51.796;13.006;2022-08-21T12:35:01;23.60;98.90
28863;DHT22;15994;51.796;13.006;2022-08-21T12:39:58;23.70;99.00
28863;DHT22;15994;51.796;13.006;2022-08-21T12:42:39;23.70;98.60
28863;DHT22;15994;51.796;13.006;2022-08-21T12:45:23;23.60;99.30
28863;DHT22;15994;51.796;13.006;2022-08-21T12:48:09;23.60;99.60
28863;DHT22;15994;51.796;13.006;2022-08-21T12:50:46;23.60;98.90
28863;DHT22;15994;51.796;13.006;2022-08-21T12:55:52;23.50;98.80
28863;DHT22;15994;51.796;13.006;2022-08-21T12:58:25;23.70;98.60
28863;DHT22;15994;51.796;13.006;2022-08-21T13:01:15;23.80;98.60
28863;DHT22;15994;51.796;13.006;2022-08-21T13:03:44;23.70;98.40
28863;DHT22;15994;51.796;13.006;2022-08-21T13:06:16;23.80;98.30
28863;DHT22;15994;51.796;13.006;2022-08-21T13:08:45;23.80;98.90
28863;DHT22;15994;51.796;13.006;2022-08-21T13:11:16;24.10;99.30
28863;DHT22;15994;51.796;13.006;2022-08-21T13:13:48;24.20;98.40
28863;DHT22;15994;51.796;13.006;2022-08-21T13:16:22;24.20;98.20
28863;DHT22;15994;51.796;13.006;2022-08-21T13:18:57;24.30;98.30
28863;DHT22;15994;51.796;13.006;2022-08-21T13:21:38;24.30;98.30
28863;DHT22;15994;51.796;13.006;2022-08-21T13:24:18;24.20;98.10
28863;DHT22;15994;51.796;13.006;2022-08-21T13:26:46;24.20;97.80
28863;DHT22;15994;51.796;13.006;2022-08-21T13:29:16;24.40;98.10
28863;DHT22;15994;51.796;13.006;2022-08-21T13:31:49;24.30;98.10
28863;DHT22;15994;51.796;13.006;2022-08-21T13:34:17;24.10;97.60
28863;DHT22;15994;51.796;13.006;2022-08-21T13:36:44;24.00;98.10
28863;DHT22;15994;51.796;13.006;2022-08-21T13:39:15;24.00;96.90
28863;DHT22;15994;51.796;13.006;2022-08-21T13:41:46;24.20;97.50
28863;DHT22;15994;51.796;13.006;2022-08-21T13:47:03;24.60;98.80
28863;DHT22;15994;51.796;13.006;2022-08-21T13:49:33;24.80;97.80
28863;DHT22;15994;51.796;13.006;2022-08-21T13:52:00;25.00;98.00
28863;DHT22;15994;51.796;13.006;2022-08-21T13:54:35;24.50;96.80
28863;DHT22;15994;51.796;13.006;2022-08-21T13:57:02;24.30;97.80
28863;DHT22;15994;51.796;13.006;2022-08-21T13:59:35;24.20;97.20
28863;DHT22;15994;51.796;13.006;2022-08-21T14:02:13;24.10;97.40
28863;DHT22;15994;51.796;13.006;2022-08-21T14:04:54;24.20;97.30
28863;DHT22;15994;51.796;13.006;2022-08-21T14:07:30;24.20;97.00
28863;DHT22;15994;51.796;13.006;2022-08-21T14:10:01;24.20;96.90
28863;DHT22;15994;51.796;13.006;2022-08-21T14:12:41;24.40;97.70
28863;DHT22;15994;51.796;13.006;2022-08-21T14:15:12;24.50;97.50
28863;DHT22;15994;51.796;13.006;2022-08-21T14:17:42;24.50;96.90
28863;DHT22;15994;51.796;13.006;2022-08-21T14:20:30;24.80;98.00
28863;DHT22;15994;51.796;13.006;2022-08-21T14:22:57;25.00;97.30
28863;DHT22;15994;51.796;13.006;2022-08-21T14:27:51;24.90;96.50
28863;DHT22;15994;51.796;13.006;2022-08-21T14:30:20;25.00;97.50
28863;DHT22;15994;51.796;13.006;2022-08-21T14:32:47;25.10;96.60
28863;DHT22;15994;51.796;13.006;2022-08-21T14:35:14;24.70;96.50
28863;DHT22;15994;51.796;13.006;2022-08-21T14:37:45;24.70;97.50
28863;DHT22;15994;51.796;13.006;2022-08-21T14:40:11;24.60;97.20
28863;DHT22;15994;51.796;13.006;2022-08-21T14:42:40;24.60;96.70
28863;DHT22;15994;51.796;13.006;2022-08-21T14:45:14;24.60;96.70
28863;DHT22;15994;51.796;13.006;2022-08-21T14:47:41;24.60;96.30
28863;DHT22;15994;51.796;13.006;2022-08-21T14:50:10;24.70;96.50
28863;DHT22;15994;51.796;13.006;2022-08-21T14:52:37;24.70;97.20
28863;DHT22;15994;51.796;13.006;2022-08-21T14:55:06;24.80;96.50
28863;DHT22;15994;51.796;13.006;2022-08-21T14:57:33;25.00;96.20
28863;DHT22;15994;51.796;13.006;2022-08-21T15:00:00;24.90;95.90
28863;DHT22;15994;51.796;13.006;2022-08-21T15:02:27;25.00;96.90
28863;DHT22;15994;51.796;13.006;2022-08-21T15:04:53;24.90;96.30
28863;DHT22;15994;51.796;13.006;2022-08-21T15:07:20;24.80;95.60
28863;DHT22;15994;51.796;13.006;2022-08-21T15:09:46;24.60;96.30
28863;DHT22;15994;51.796;13.006;2022-08-21T15:12:14;24.50;96.30
28863;DHT22;15994;51.796;13.006;2022-08-21T15:14:40;24.60;96.70
28863;DHT22;15994;51.796;13.006;2022-08-21T15:17:09;24.40;96.10
28863;DHT22;15994;51.796;13.006;2022-08-21T15:19:37;24.30;97.00
28863;DHT22;15994;51.796;13.006;2022-08-21T15:22:05;24.30;96.90
28863;DHT22;15994;51.796;13.006;2022-08-21T15:24:31;24.40;97.40
28863;DHT22;15994;51.796;13.006;2022-08-21T15:27:00;24.40;97.20
28863;DHT22;15994;51.796;13.006;2022-08-21T15:29:28;24.40;96.70
28863;DHT22;15994;51.796;13.006;2022-08-21T15:32:14;24.40;97.00
28863;DHT22;15994;51.796;13.006;2022-08-21T15:34:41;24.30;96.10
28863;DHT22;15994;51.796;13.006;2022-08-21T15:37:07;24.50;97.70
28863;DHT22;15994;51.796;13.006;2022-08-21T15:39:35;24.60;96.80
28863;DHT22;15994;51.796;13.006;2022-08-21T15:42:03;24.70;97.00
28863;DHT22;15994;51.796;13.006;2022-08-21T15:44:29;24.60;95.70
28863;DHT22;15994;51.796;13.006;2022-08-21T15:46:57;24.60;96.40
28863;DHT22;15994;51.796;13.006;2022-08-21T15:49:25;24.60;96.30
28863;DHT22;15994;51.796;13.006;2022-08-21T15:51:51;24.60;96.30
28863;DHT22;15994;51.796;13.006;2022-08-21T15:54:18;24.80;96.20
28863;DHT22;15994;51.796;13.006;2022-08-21T15:56:47;24.80;94.90
28863;DHT22;15994;51.796;13.006;2022-08-21T15:59:18;25.00;95.10
28863;DHT22;15994;51.796;13.006;2022-08-21T16:01:51;25.20;95.30
28863;DHT22;15994;51.796;13.006;2022-08-21T16:04:25;25.40;94.90
28863;DHT22;15994;51.796;13.006;2022-08-21T16:06:53;25.40;95.20
28863;DHT22;15994;51.796;13.006;2022-08-21T16:09:19;25.80;95.50
28863;DHT22;15994;51.796;13.006;2022-08-21T16:11:47;25.70;94.90
28863;DHT22;15994;51.796;13.006;2022-08-21T16:14:15;25.60;94.40
28863;DHT22;15994;51.796;13.006;2022-08-21T16:16:42;25.80;95.10
28863;DHT22;15994;51.796;13.006;2022-08-21T16:19:10;26.00;95.10
28863;DHT22;15994;51.796;13.006;2022-08-21T16:21:37;26.20;95.60